createdAt,value
2023-02-02T00:00:00.182Z,100404.09
2023-02-02T00:03:02.816Z,100399.03
2023-02-02T00:06:06.750Z,100395.41
2023-02-02T00:09:10.733Z,100401.75
2023-02-02T00:12:13.286Z,100396.31
2023-02-02T00:15:14.654Z,100390.75
2023-02-02T00:18:17.179Z,100398.19
2023-02-02T00:21:19.125Z,100392.41
2023-02-02T00:24:21.873Z,100386.81
2023-02-02T00:27:23.164Z,100396.38
2023-02-02T00:30:25.921Z,100393.06
2023-02-02T00:33:27.257Z,100398.97
2023-02-02T00:36:30.504Z,100382.66
2023-02-02T00:42:52.657Z,100371.69
2023-02-02T00:45:55.012Z,100378.97
2023-02-02T00:48:56.313Z,100375.41
2023-02-02T00:52:00.802Z,100388.00
2023-02-02T00:55:03.424Z,100389.16
2023-02-02T00:58:04.776Z,100392.19
2023-02-02T01:01:15.726Z,100400.59
2023-02-02T01:04:17.003Z,100394.66
2023-02-02T01:07:20.263Z,100410.81
2023-02-02T01:10:21.519Z,100411.56
2023-02-02T01:13:24.064Z,100409.06
2023-02-02T01:16:25.553Z,100399.94
2023-02-02T01:19:28.193Z,100396.63
2023-02-02T01:22:30.127Z,100421.53
2023-02-02T01:25:34.237Z,100416.47
2023-02-02T01:28:37.535Z,100412.31
2023-02-02T01:31:41.128Z,100418.03
2023-02-02T01:34:44.220Z,100408.09
2023-02-02T01:37:46.167Z,100401.31
2023-02-02T01:40:54.217Z,100413.84
2023-02-02T01:43:58.788Z,100406.75
2023-02-02T01:47:01.581Z,100416.41
2023-02-02T01:50:05.543Z,100420.34
2023-02-02T01:53:09.573Z,100415.59
2023-02-02T01:56:16.445Z,100422.00
2023-02-02T01:59:18.314Z,100429.09
2023-02-02T02:02:21.485Z,100417.00
2023-02-02T02:05:27.226Z,100433.94
2023-02-02T02:08:34.826Z,100429.31
2023-02-02T02:11:36.434Z,100434.97
2023-02-02T02:14:57.278Z,100440.19
2023-02-02T02:18:14.239Z,100441.16
2023-02-02T02:21:58.059Z,100435.50
2023-02-02T02:25:49.018Z,100452.66
2023-02-02T02:29:36.364Z,100441.38
2023-02-02T02:32:46.383Z,100434.81
2023-02-02T02:35:58.685Z,100453.97
2023-02-02T02:39:10.721Z,100452.47
2023-02-02T02:42:16.755Z,100456.78
2023-02-02T02:45:20.604Z,100455.69
2023-02-02T02:51:46.496Z,100470.72
2023-02-02T02:54:52.785Z,100470.84
2023-02-02T02:58:06.459Z,100472.09
2023-02-02T03:01:14.381Z,100469.38
2023-02-02T03:04:23.213Z,100493.63
2023-02-02T03:07:29.161Z,100487.91
2023-02-02T03:10:32.563Z,100498.63
2023-02-02T03:13:34.420Z,100494.09
2023-02-02T03:16:37.759Z,100521.41
2023-02-02T03:19:39.647Z,100523.72
2023-02-02T03:22:42.171Z,100531.09
2023-02-02T03:25:45.229Z,100529.59
2023-02-02T03:28:46.668Z,100555.09
2023-02-02T03:31:49.691Z,100558.25
2023-02-02T03:34:51.633Z,100554.84
2023-02-02T03:37:54.245Z,100557.94
2023-02-02T03:40:55.519Z,100576.88
2023-02-02T03:43:58.167Z,100573.72
2023-02-02T03:46:59.565Z,100583.03
2023-02-02T03:50:02.835Z,100578.63
2023-02-02T03:53:04.963Z,100581.81
2023-02-02T03:56:08.234Z,100592.47
2023-02-02T03:59:09.503Z,100593.66
2023-02-02T04:02:12.149Z,100592.75
2023-02-02T04:05:15.703Z,100602.19
2023-02-02T04:08:16.946Z,100603.97
2023-02-02T04:11:19.860Z,100619.66
2023-02-02T04:14:21.124Z,100627.47
2023-02-02T04:17:23.697Z,100626.88
2023-02-02T04:23:47.721Z,100634.69
2023-02-02T04:26:49.060Z,100642.59
2023-02-02T04:29:50.722Z,100642.91
2023-02-02T04:32:52.060Z,100659.53
2023-02-02T04:35:54.549Z,100658.19
2023-02-02T04:38:55.891Z,100661.06
2023-02-02T04:41:58.436Z,100675.97
2023-02-02T04:45:00.623Z,100670.09
2023-02-02T04:48:03.008Z,100681.69
2023-02-02T04:51:09.067Z,100687.38
2023-02-02T04:54:10.318Z,100676.72
2023-02-02T04:57:11.634Z,100698.47
2023-02-02T05:00:15.416Z,100698.56
2023-02-02T05:03:17.967Z,100706.94
2023-02-02T05:06:19.895Z,100715.25
2023-02-02T05:09:22.583Z,100727.75
2023-02-02T05:12:23.939Z,100723.19
2023-02-02T05:15:26.315Z,100738.06
2023-02-02T05:18:28.148Z,100738.63
2023-02-02T05:21:30.113Z,100750.63
2023-02-02T05:24:31.391Z,100760.22
2023-02-02T05:27:34.125Z,100756.28
2023-02-02T05:33:56.904Z,100770.94
2023-02-02T05:36:58.883Z,100779.41
2023-02-02T05:40:00.177Z,100774.41
2023-02-02T05:43:02.728Z,100790.69
2023-02-02T05:46:04.629Z,100780.75
2023-02-02T05:49:05.950Z,100789.19
2023-02-02T05:52:11.852Z,100795.06
2023-02-02T05:55:13.170Z,100798.06
2023-02-02T05:58:15.713Z,100798.75
2023-02-02T06:01:18.741Z,100811.63
2023-02-02T06:04:21.276Z,100812.22
2023-02-02T06:07:24.481Z,100813.75
2023-02-02T06:10:25.829Z,100816.28
2023-02-02T06:13:28.367Z,100829.72
2023-02-02T06:16:29.674Z,100838.81
2023-02-02T06:19:32.735Z,100843.19
2023-02-02T06:22:34.932Z,100841.16
2023-02-02T06:25:37.545Z,100855.34
2023-02-02T06:28:38.885Z,100858.28
2023-02-02T06:31:41.494Z,100864.13
2023-02-02T06:34:44.083Z,100858.53
2023-02-02T06:37:46.072Z,100866.44
2023-02-02T06:40:48.571Z,100868.03
2023-02-02T06:43:49.987Z,100887.81
2023-02-02T06:46:52.477Z,100894.03
2023-02-02T06:49:53.811Z,100897.50
2023-02-02T06:56:18.705Z,100913.53
2023-02-02T06:59:20.181Z,100914.78
2023-02-02T07:02:23.885Z,100925.84
2023-02-02T07:05:30.112Z,100933.41
2023-02-02T07:08:33.801Z,100940.94
2023-02-02T07:11:37.395Z,100939.50
2023-02-02T07:14:42.105Z,100947.66
2023-02-02T07:17:43.365Z,100953.50
2023-02-02T07:20:44.668Z,100957.59
2023-02-02T07:23:47.078Z,100965.03
2023-02-02T07:26:48.443Z,100976.97
2023-02-02T07:29:51.023Z,100975.34
2023-02-02T07:32:52.277Z,100984.72
2023-02-02T07:35:54.832Z,100989.97
2023-02-02T07:38:57.152Z,100994.50
2023-02-02T07:42:01.420Z,101000.50
2023-02-02T07:45:27.152Z,100999.38
2023-02-02T07:48:27.128Z,101004.56
2023-02-02T07:51:28.421Z,101011.00
2023-02-02T07:54:31.391Z,101001.56
2023-02-02T07:57:32.740Z,101004.72
2023-02-02T08:00:34.033Z,101007.00
2023-02-02T08:03:40.022Z,101023.88
2023-02-02T08:06:41.428Z,101018.03
2023-02-02T08:09:48.590Z,101015.91
2023-02-02T08:12:49.899Z,101034.06
2023-02-02T08:15:52.423Z,101022.78
2023-02-02T08:18:55.567Z,101036.22
2023-02-02T08:21:56.865Z,101036.09
2023-02-02T08:24:58.786Z,101045.78
2023-02-02T08:28:02.234Z,101055.06
2023-02-02T08:31:06.296Z,101057.03
2023-02-02T08:34:07.631Z,101059.03
2023-02-02T08:37:08.897Z,101056.28
2023-02-02T08:40:13.431Z,101061.72
2023-02-02T08:43:16.577Z,101063.78
2023-02-02T08:49:41.666Z,101072.00
2023-02-02T08:52:44.558Z,101069.88
2023-02-02T08:55:46.618Z,101069.16
2023-02-02T08:58:51.158Z,101067.16
2023-02-02T09:01:53.488Z,101075.88
2023-02-02T09:04:54.811Z,101075.56
2023-02-02T09:07:56.417Z,101084.47
2023-02-02T09:11:03.195Z,101090.56
2023-02-02T09:14:06.922Z,101088.22
2023-02-02T09:17:08.301Z,101092.63
2023-02-02T09:20:11.859Z,101099.84
2023-02-02T09:23:13.150Z,101101.41
2023-02-02T09:26:18.469Z,101117.09
2023-02-02T09:29:19.931Z,101109.09
2023-02-02T09:32:22.285Z,101118.34
2023-02-02T09:35:25.218Z,101114.13
2023-02-02T09:38:26.723Z,101118.84
2023-02-02T09:42:08.027Z,101127.03
2023-02-02T09:45:18.329Z,101129.69
2023-02-02T09:48:32.688Z,101138.81
2023-02-02T09:51:41.002Z,101143.19
2023-02-02T09:54:44.478Z,101131.56
2023-02-02T09:57:51.917Z,101150.25
2023-02-02T10:01:01.088Z,101145.06
2023-02-02T10:04:09.519Z,101146.50
2023-02-02T10:07:18.259Z,101159.19
2023-02-02T10:10:25.185Z,101167.22
2023-02-02T10:13:34.397Z,101170.66
2023-02-02T10:16:38.653Z,101161.69
2023-02-02T10:19:42.071Z,101172.09
2023-02-02T10:22:45.519Z,101166.38
2023-02-02T10:25:55.876Z,101170.69
2023-02-02T10:29:09.279Z,101170.28
2023-02-02T10:32:21.863Z,101168.53
2023-02-02T10:35:37.856Z,101171.38
2023-02-02T10:38:47.416Z,101173.38
2023-02-02T10:42:03.266Z,101185.09
2023-02-02T10:45:14.107Z,101183.31
2023-02-02T10:48:19.444Z,101187.09
2023-02-02T10:51:27.140Z,101194.91
2023-02-02T10:54:56.342Z,101200.16
2023-02-02T10:58:08.238Z,101194.75
2023-02-02T11:01:11.967Z,101197.94
2023-02-02T11:04:32.720Z,101209.31
2023-02-02T11:07:35.728Z,101205.88
2023-02-02T11:10:38.112Z,101220.69
2023-02-02T11:13:45.010Z,101220.03
2023-02-02T11:17:02.742Z,101219.59
2023-02-02T11:20:24.205Z,101229.84
2023-02-02T11:23:27.712Z,101222.69
2023-02-02T11:26:42.822Z,101240.22
2023-02-02T11:29:47.781Z,101240.47
2023-02-02T11:32:51.138Z,101232.75
2023-02-02T11:35:54.980Z,101241.56
2023-02-02T11:39:15.127Z,101247.78
2023-02-02T11:42:19.707Z,101251.56
2023-02-02T11:45:30.081Z,101256.91
2023-02-02T11:48:36.637Z,101259.16
2023-02-02T11:51:39.076Z,101260.63
2023-02-02T11:54:46.822Z,101262.19
2023-02-02T11:58:19.756Z,101268.78
2023-02-02T12:01:26.454Z,101292.56
2023-02-02T12:04:32.177Z,101304.47
2023-02-02T12:07:35.492Z,101311.78
2023-02-02T12:10:44.496Z,101320.38
2023-02-02T12:13:58.720Z,101326.72
2023-02-02T12:17:09.623Z,101322.13
2023-02-02T12:20:38.774Z,101317.50
2023-02-02T12:23:53.783Z,101304.03
2023-02-02T12:27:05.186Z,101313.50
2023-02-02T12:30:22.524Z,101306.16
2023-02-02T12:33:34.648Z,101311.63
2023-02-02T12:36:49.039Z,101320.88
2023-02-02T12:40:03.358Z,101320.28
2023-02-02T12:43:22.468Z,101324.72
2023-02-02T12:46:45.298Z,101318.19
2023-02-02T12:50:02.538Z,101326.94
2023-02-02T12:53:25.881Z,101320.34
2023-02-02T12:56:37.119Z,101330.56
2023-02-02T13:00:03.257Z,101322.63
2023-02-02T13:03:18.752Z,101323.19
2023-02-02T13:06:51.474Z,101330.09
2023-02-02T13:10:12.086Z,101338.34
2023-02-02T13:13:19.244Z,101344.66
2023-02-02T13:16:21.821Z,101351.94
2023-02-02T13:19:31.231Z,101361.97
2023-02-02T13:22:38.205Z,101365.31
2023-02-02T13:25:47.139Z,101376.66
2023-02-02T13:28:54.591Z,101382.25
2023-02-02T13:32:02.007Z,101390.69
2023-02-02T13:35:10.752Z,101397.84
2023-02-02T13:38:20.355Z,101395.53
2023-02-02T13:41:22.987Z,101404.16
2023-02-02T13:44:29.736Z,101424.91
2023-02-02T13:47:41.432Z,101412.09
2023-02-02T13:50:56.249Z,101423.22
2023-02-02T13:54:21.998Z,101423.22
2023-02-02T13:57:56.198Z,101445.28
2023-02-02T14:01:03.145Z,101445.72
2023-02-02T14:04:06.048Z,101459.53
2023-02-02T14:07:07.627Z,101454.69
2023-02-02T14:10:22.959Z,101475.03
2023-02-02T14:13:50.899Z,101477.97
2023-02-02T14:16:56.022Z,101484.69
2023-02-02T14:19:58.651Z,101488.47
2023-02-02T14:23:00.980Z,101492.66
2023-02-02T14:26:08.225Z,101503.16
2023-02-02T14:29:39.362Z,101498.97
2023-02-02T14:32:42.174Z,101502.94
2023-02-02T14:36:01.926Z,101514.47
2023-02-02T14:39:21.240Z,101522.63
2023-02-02T14:43:07.612Z,101532.91
2023-02-02T14:46:38.826Z,101538.75
2023-02-02T14:49:40.386Z,101544.19
2023-02-02T14:52:41.933Z,101553.63
2023-02-02T14:55:54.214Z,101556.34
2023-02-02T14:59:00.476Z,101573.69
2023-02-02T15:02:19.585Z,101575.81
2023-02-02T15:05:44.007Z,101581.84
2023-02-02T15:08:45.811Z,101581.22
2023-02-02T15:12:21.060Z,101592.09
2023-02-02T15:15:29.890Z,101599.38
2023-02-02T15:18:40.848Z,101616.88
2023-02-02T15:21:48.491Z,101611.28
2023-02-02T15:24:51.142Z,101624.34
2023-02-02T15:28:00.219Z,101634.19
2023-02-02T15:31:07.085Z,101634.75
2023-02-02T15:34:17.508Z,101643.72
2023-02-02T15:37:22.405Z,101643.44
2023-02-02T15:40:26.353Z,101658.69
2023-02-02T15:43:29.230Z,101655.47
2023-02-02T15:46:36.018Z,101666.25
2023-02-02T15:49:39.246Z,101668.53
2023-02-02T15:52:46.722Z,101670.13
2023-02-02T15:55:49.573Z,101682.63
2023-02-02T15:58:52.950Z,101688.06
2023-02-02T16:02:17.962Z,101693.81
2023-02-02T16:05:42.352Z,101701.72
2023-02-02T16:08:44.255Z,101712.50
2023-02-02T16:11:47.660Z,101720.22
2023-02-02T16:14:52.627Z,101728.75
2023-02-02T16:18:01.170Z,101743.56
2023-02-02T16:21:15.385Z,101736.56
2023-02-02T16:24:21.038Z,101751.28
2023-02-02T16:27:26.073Z,101765.88
2023-02-02T16:30:29.852Z,101768.69
2023-02-02T16:33:39.639Z,101779.69
2023-02-02T16:40:18.922Z,101792.03
2023-02-02T16:43:26.462Z,101795.03
2023-02-02T16:46:45.043Z,101801.03
2023-02-02T16:49:46.360Z,101801.75
2023-02-02T16:52:53.257Z,101802.13
2023-02-02T16:55:57.104Z,101810.84
2023-02-02T17:02:29.462Z,101820.44
2023-02-02T17:05:34.649Z,101816.94
2023-02-02T17:08:39.747Z,101824.81
2023-02-02T17:11:55.990Z,101823.84
2023-02-02T17:15:00.790Z,101830.19
2023-02-02T17:18:04.852Z,101830.25
2023-02-02T17:21:07.409Z,101826.22
2023-02-02T17:24:11.609Z,101839.16
2023-02-02T17:27:16.744Z,101836.13
2023-02-02T17:30:19.240Z,101849.75
2023-02-02T17:33:21.862Z,101856.72
2023-02-02T17:36:24.400Z,101858.81
2023-02-02T17:39:26.341Z,101866.63
2023-02-02T17:42:29.178Z,101866.97
2023-02-02T17:45:34.096Z,101869.56
2023-02-02T17:48:42.957Z,101873.00
2023-02-02T17:51:45.839Z,101887.56
2023-02-02T17:54:47.790Z,101886.09
2023-02-02T17:57:51.118Z,101882.88
2023-02-02T18:00:55.508Z,101882.38
2023-02-02T18:03:57.054Z,101887.97
2023-02-02T18:06:59.661Z,101879.50
2023-02-02T18:10:01.596Z,101886.78
2023-02-02T18:13:03.069Z,101885.44
2023-02-02T18:16:06.342Z,101881.25
2023-02-02T18:19:08.878Z,101885.31
2023-02-02T18:22:10.480Z,101876.34
2023-02-02T18:25:12.515Z,101886.16
2023-02-02T18:28:17.605Z,101889.72
2023-02-02T18:31:22.335Z,101885.66
2023-02-02T18:34:23.822Z,101887.72
2023-02-02T18:37:25.311Z,101889.91
2023-02-02T18:40:28.480Z,101887.53
2023-02-02T18:43:31.078Z,101883.66
2023-02-02T18:46:33.260Z,101886.69
2023-02-02T18:49:35.839Z,101880.47
2023-02-02T18:52:37.138Z,101880.28
2023-02-02T18:55:39.101Z,101883.69
2023-02-02T18:58:40.620Z,101883.50
2023-02-02T19:01:42.020Z,101887.56
2023-02-02T19:08:24.719Z,101883.84
2023-02-02T19:11:34.115Z,101883.50
2023-02-02T19:14:38.052Z,101884.00
2023-02-02T19:17:39.757Z,101889.06
2023-02-02T19:20:43.596Z,101888.41
2023-02-02T19:23:45.418Z,101899.03
2023-02-02T19:26:50.641Z,101894.81
2023-02-02T19:29:55.613Z,101906.63
2023-02-02T19:32:57.775Z,101909.16
2023-02-02T19:35:59.109Z,101903.25
2023-02-02T19:39:10.465Z,101916.09
2023-02-02T19:42:14.074Z,101909.16
2023-02-02T19:45:25.313Z,101913.56
2023-02-02T19:48:32.186Z,101908.66
2023-02-02T19:51:41.427Z,101906.13
2023-02-02T19:54:45.562Z,101900.06
2023-02-02T19:57:47.492Z,101918.47
2023-02-02T20:00:52.065Z,101909.00
2023-02-02T20:03:54.471Z,101917.28
2023-02-02T20:06:59.631Z,101909.50
2023-02-02T20:10:14.788Z,101914.25
2023-02-02T20:13:21.242Z,101920.66
2023-02-02T20:16:25.344Z,101916.94
2023-02-02T20:19:30.595Z,101912.75
2023-02-02T20:22:33.025Z,101926.75
2023-02-02T20:25:36.727Z,101915.94
2023-02-02T20:28:42.625Z,101912.22
2023-02-02T20:31:45.128Z,101911.88
2023-02-02T20:34:46.497Z,101903.44
2023-02-02T20:37:48.351Z,101898.38
2023-02-02T20:40:52.631Z,101904.31
2023-02-02T20:43:54.565Z,101904.31
2023-02-02T20:50:20.054Z,101905.47
2023-02-02T20:53:22.874Z,101906.00
2023-02-02T20:56:24.815Z,101893.13
2023-02-02T20:59:28.010Z,101891.63
2023-02-02T21:02:29.322Z,101892.28
2023-02-02T21:05:31.920Z,101897.69
2023-02-02T21:08:33.191Z,101883.34
2023-02-02T21:11:35.891Z,101887.06
2023-02-02T21:14:38.157Z,101880.97
2023-02-02T21:17:41.291Z,101878.78
2023-02-02T21:20:43.842Z,101867.97
2023-02-02T21:23:47.801Z,101864.25
2023-02-02T21:26:52.135Z,101864.09
2023-02-02T21:29:55.724Z,101861.56
2023-02-02T21:32:57.731Z,101853.75
2023-02-02T21:36:03.626Z,101863.72
2023-02-02T21:39:27.639Z,101848.88
2023-02-02T21:42:35.013Z,101850.91
2023-02-02T21:45:39.302Z,101858.50
2023-02-02T21:48:41.291Z,101853.75
2023-02-02T21:51:43.803Z,101855.31
2023-02-02T21:54:46.998Z,101853.44
2023-02-02T21:57:48.338Z,101840.44
2023-02-02T22:00:51.920Z,101841.63
2023-02-02T22:03:53.540Z,101825.56
2023-02-02T22:06:59.829Z,101829.97
2023-02-02T22:10:02.408Z,101826.91
2023-02-02T22:13:15.324Z,101827.56
2023-02-02T22:16:21.154Z,101829.94
2023-02-02T22:19:32.542Z,101824.22
2023-02-02T22:22:36.045Z,101820.81
2023-02-02T22:25:41.200Z,101821.50
2023-02-02T22:28:43.704Z,101820.31
2023-02-02T22:31:46.921Z,101825.38
2023-02-02T22:34:48.193Z,101822.00
2023-02-02T22:37:51.893Z,101820.63
2023-02-02T22:40:53.746Z,101824.38
2023-02-02T22:43:56.362Z,101828.75
2023-02-02T22:46:59.610Z,101812.19
2023-02-02T22:50:00.867Z,101821.31
2023-02-02T22:53:04.530Z,101816.75
2023-02-02T22:56:06.374Z,101825.34
2023-02-02T22:59:27.161Z,101815.50
2023-02-02T23:02:29.140Z,101822.59
2023-02-02T23:05:30.496Z,101819.59
2023-02-02T23:08:33.166Z,101817.38
2023-02-02T23:11:34.459Z,101822.41
2023-02-02T23:14:37.057Z,101813.81
2023-02-02T23:17:40.328Z,101813.94
2023-02-02T23:20:41.650Z,101817.78
2023-02-02T23:23:44.421Z,101809.53
2023-02-02T23:26:45.704Z,101802.56
2023-02-02T23:29:48.254Z,101799.84
2023-02-02T23:32:50.377Z,101793.78
2023-02-02T23:35:52.936Z,101786.63
2023-02-02T23:38:55.499Z,101786.47
2023-02-02T23:41:56.834Z,101764.75
2023-02-02T23:44:59.372Z,101764.25
2023-02-02T23:48:01.515Z,101756.72
2023-02-02T23:51:04.230Z,101756.91
2023-02-02T23:54:06.057Z,101750.28
2023-02-02T23:57:08.664Z,101752.28
